Baker, FL (32531)

2:25 PM CDT on August 29, 2015 (GMT -0500)
Ridgecrest Estates | | Change Station
CLOSE
Current Station
Personal Weather Station
Location: Crestview, FL
Elevation: 210 ft
Nearby Weather Stations

Elev 210 ft 30.76 °N, 86.58 °W | Updated 6 minutes ago

Partly Cloudy
Partly Cloudy
95.5 °F
Feels Like 104 °F
N
2.7
Wind Variable Wind from West

Today
High -- | Low -- °F
--% Chance of Precip.
Yesterday
High -- | Low -- °F
Precip. -- in
6:21 AM 7:13 PM
Full, 100% visible
Pressure 30.08 in
Visibility 10.0 miles
Clouds Mostly Cloudy 3700 ft
Mostly Cloudy 4600 ft
Heat Index 104 °F
Dew Point 72 °F
Humidity 47%
Rainfall 0.00 in
Snow Depth Not available.
UV 6 out of 12
Pollen 6.90 out of 12
Air Quality Not available.
Flu Activity Not available.
METAR KCEW 291853Z AUTO 00000KT 10SM BKN037 BKN046 31/22 A3009 RMK AO2 SLP184 T03060217
Pressure 30.08 in
Visibility 10.0 miles
Clouds Mostly Cloudy 3700 ft
Mostly Cloudy 4600 ft
Heat Index 104 °F
Dew Point 72 °F
Humidity 47%
Rainfall 0.00 in
Snow Depth Not available.
UV 6 out of 12
Pollen 6.90 out of 12
Air Quality Not available.
Flu Activity Not available.
METAR KCEW 291853Z AUTO 00000KT 10SM BKN037 BKN046 31/22 A3009 RMK AO2 SLP184 T03060217

10-Day Weather Forecast

×

Almanac

Astronomy

Aug. 29, 2015 Rise Set
Actual Time
Civil Twilight
Nautical Twilight
Astronomical Twilight
Moon
Length of Visible Light
Length of Day
Tomorrow will be .
, % of the Moon is Illuminated

Today's Extremes

State Highs State Lows

Community

WunderPhotos

Upload Photos

1,850,780 photos uploaded!

WunderBlogs® & News

Nearby

Air Quality

  Air Quality AQ Index Pollutant
Not available.

Snow Depth

Station Depth Elevation

Earthquake Activity

City Distance Mag. Time & Date
Minimum magnitude displayed is 2.5.

Coastal Water Temperatures

Place Temperature

Stations

Nearby Weather Stations

Station Location Temp. Windchill Dew Point Humidity Wind Precip. Elev Updated Type